LiveATC.Net - Listen to live air traffic control over the Internet!


ICAO: KCTJ  IATA: CTJ   Airport: West Georgia Regional Airport-O V Gray Field
City: Carrollton   State/Province: Georgia
Country: United States   Continent: North America
KCTJ METAR Weather: KCTJ 191034Z AUTO 00000KT 10SM CLR 19/18 A3001 RMK AO2 T01850179
KCTJ Flight Activity (FlightAware)
KCTJ Airport Info   (AirNav) (iFlightPlanner)
KCTJ VFR Sectional Chart   (iFlightPlanner) 
KCTJ IFR Low Chart   (iFlightPlanner) 

KCTJ/KLGC CTAF
Feed Status: UP   Listeners: 0
Listen right in your browser - requires Flash (in browser, requires Flash)
Click here to listen with your own player (launches your MP3 player)
KCTJ/KLGC CTAF Audio Archives
FacilityFrequency
KCTJ/KLGC CTAF122.975

NOTICE

Unauthorized use prohibited. See LiveATC.net Terms of Service


Find LiveATC Audio Streams


Airport/ARTCC Code

Frequency Search
(e.g., 124.400, 128.75)
Site-wide search
 


Browse LiveATC Feeds
Top 50 LiveATC Feeds
Bad Weather Areas

LiveATC FAQ
Offer a LiveATC Feed
Contact LiveATC.net
Press Inquiries

LiveATC on iPhone
LiveATC on Android

Windows Phone
Windows 8/10

LiveATC Mobile
(Mobile browser)

ATC Audio Archives
Interesting Recordings

LiveATC Forums


Home Page
About LiveATC.net
Make a Donation
Terms of Use
Privacy Policy

Canadian Air Freqs

AIRMETs/SIGMETs

FAA Airport Status
Nat'l Airspace Status
Arrival Demand Charts


Server Software By:
Icecast.org
Liquidsoap